Aviation Digital Data Service (ADDS)

Output produced by METARs form (1919 UTC 13 February 2016)
found at http://aviationweather.gov/adds/metars/
 
KPGV 131720Z 1318/1418 33012G22KT P6SM SKC 
     FM132300 35005KT P6SM SKC AMD LTD TO CLD VIS AND WIND